createdAt,value
2017-10-08T00:00:02.808Z,1011.02
2017-10-08T00:05:03.020Z,1011.08
2017-10-08T00:10:03.623Z,1011.15
2017-10-08T00:15:03.077Z,1011.17
2017-10-08T00:20:03.689Z,1011.2
2017-10-08T00:25:03.111Z,1011.17
2017-10-08T00:30:02.628Z,1011.17
2017-10-08T00:35:03.246Z,1011.16
2017-10-08T00:40:02.798Z,1011.17
2017-10-08T00:45:03.217Z,1011.2
2017-10-08T00:50:02.717Z,1011.22
2017-10-08T00:55:03.230Z,1011.25
2017-10-08T01:00:02.757Z,1011.32
2017-10-08T01:05:03.173Z,1011.23
2017-10-08T01:10:02.795Z,1011.19
2017-10-08T01:15:03.169Z,1011.33
2017-10-08T01:20:02.782Z,1011.5
2017-10-08T01:25:03.120Z,1011.55
2017-10-08T01:30:03.746Z,1011.58
2017-10-08T01:35:03.340Z,1011.52
2017-10-08T01:40:02.978Z,1011.53
2017-10-08T01:45:03.601Z,1011.56
2017-10-08T01:50:03.114Z,1011.49
2017-10-08T01:55:03.654Z,1011.58
2017-10-08T02:00:03.415Z,1011.52
2017-10-08T02:05:02.865Z,1011.49
2017-10-08T02:10:03.698Z,1011.48
2017-10-08T02:15:03.223Z,1011.53
2017-10-08T02:20:03.669Z,1011.57
2017-10-08T02:25:03.226Z,1011.75
2017-10-08T02:30:03.782Z,1011.79
2017-10-08T02:35:03.351Z,1011.79
2017-10-08T02:40:02.924Z,1011.81
2017-10-08T02:45:03.392Z,1011.79
2017-10-08T02:50:02.811Z,1011.86
2017-10-08T02:55:03.492Z,1011.92
2017-10-08T03:00:02.906Z,1011.94
2017-10-08T03:05:03.598Z,1012.05
2017-10-08T03:10:03.167Z,1011.95
2017-10-08T03:15:03.623Z,1012.01
2017-10-08T03:20:03.314Z,1012.07
2017-10-08T03:25:02.872Z,1012.08
2017-10-08T03:30:03.276Z,1012.09
2017-10-08T03:35:03.042Z,1012.19
2017-10-08T03:40:03.751Z,1012.21
2017-10-08T03:45:03.285Z,1012.29
2017-10-08T03:50:02.707Z,1012.29
2017-10-08T03:55:03.013Z,1012.41
2017-10-08T04:00:03.907Z,1012.41
2017-10-08T04:05:03.399Z,1012.42
2017-10-08T04:10:02.742Z,1012.41
2017-10-08T04:15:03.145Z,1012.42
2017-10-08T04:20:03.778Z,1012.46
2017-10-08T04:25:03.639Z,1012.48
2017-10-08T04:30:02.773Z,1012.48
2017-10-08T04:35:03.161Z,1012.47
2017-10-08T04:40:02.701Z,1012.55
2017-10-08T04:45:03.355Z,1012.65
2017-10-08T04:50:02.956Z,1012.64
2017-10-08T04:55:03.309Z,1012.65
2017-10-08T05:00:02.782Z,1012.8
2017-10-08T05:05:03.109Z,1012.86
2017-10-08T05:10:02.708Z,1012.94
2017-10-08T05:15:03.060Z,1013.05
2017-10-08T05:20:03.473Z,1013.08
2017-10-08T05:25:02.993Z,1013.06
2017-10-08T05:30:02.682Z,1013.12
2017-10-08T05:35:03.328Z,1013.1
2017-10-08T05:40:03.044Z,1013.12
2017-10-08T05:45:03.316Z,1013.16
2017-10-08T05:50:02.842Z,1013.26
2017-10-08T05:55:03.512Z,1013.32
2017-10-08T06:00:02.840Z,1013.36
2017-10-08T06:05:03.363Z,1013.44
2017-10-08T06:10:02.854Z,1013.54
2017-10-08T06:15:03.416Z,1013.58
2017-10-08T06:20:02.835Z,1013.66
2017-10-08T06:25:03.412Z,1013.74
2017-10-08T06:30:02.882Z,1013.79
2017-10-08T06:35:03.310Z,1013.88
2017-10-08T06:40:02.843Z,1013.88
2017-10-08T06:45:03.539Z,1013.92
2017-10-08T06:50:02.920Z,1014
2017-10-08T06:55:03.350Z,1014.16
2017-10-08T07:00:02.848Z,1014.16
2017-10-08T07:05:03.681Z,1014.25
2017-10-08T07:10:03.185Z,1014.29
2017-10-08T07:15:02.716Z,1014.33
2017-10-08T07:20:03.268Z,1014.42
2017-10-08T07:25:02.877Z,1014.45
2017-10-08T07:30:03.262Z,1014.47
2017-10-08T07:35:02.770Z,1014.62
2017-10-08T07:40:03.452Z,1014.64
2017-10-08T07:45:03.096Z,1014.68
2017-10-08T07:50:03.514Z,1014.73
2017-10-08T07:55:02.868Z,1014.83
2017-10-08T08:00:03.593Z,1014.94
2017-10-08T08:05:02.909Z,1015.02
2017-10-08T08:10:03.374Z,1015.14
2017-10-08T08:15:02.703Z,1015.23
2017-10-08T08:20:03.281Z,1015.27
2017-10-08T08:25:02.812Z,1015.25
2017-10-08T08:30:03.316Z,1015.32
2017-10-08T08:35:02.643Z,1015.43
2017-10-08T08:40:03.397Z,1015.41
2017-10-08T08:45:02.784Z,1015.45
2017-10-08T08:50:03.399Z,1015.51
2017-10-08T08:55:02.963Z,1015.58
2017-10-08T09:00:03.284Z,1015.63
2017-10-08T09:05:02.817Z,1015.58
2017-10-08T09:10:03.573Z,1015.66
2017-10-08T09:15:02.925Z,1015.7
2017-10-08T09:20:03.619Z,1015.77
2017-10-08T09:25:02.969Z,1015.86
2017-10-08T09:30:03.553Z,1015.95
2017-10-08T09:35:03.008Z,1016.11
2017-10-08T09:40:02.788Z,1016.17
2017-10-08T09:45:03.502Z,1016.2
2017-10-08T09:50:02.886Z,1016.26
2017-10-08T09:55:03.393Z,1016.39
2017-10-08T10:00:02.791Z,1016.47
2017-10-08T10:05:03.322Z,1016.46
2017-10-08T10:10:02.980Z,1016.53
2017-10-08T10:15:03.751Z,1016.56
2017-10-08T10:20:03.440Z,1016.6
2017-10-08T10:25:04.563Z,1016.62
2017-10-08T10:30:03.018Z,1016.64
2017-10-08T10:35:03.590Z,1016.71
2017-10-08T10:40:03.341Z,1016.63
2017-10-08T10:45:02.902Z,1016.77
2017-10-08T10:50:03.520Z,1016.82
2017-10-08T10:55:02.898Z,1016.75
2017-10-08T11:00:03.495Z,1016.72
2017-10-08T11:05:02.965Z,1016.76
2017-10-08T11:10:03.643Z,1016.72
2017-10-08T11:15:03.222Z,1016.75
2017-10-08T11:20:02.797Z,1016.74
2017-10-08T11:25:03.492Z,1016.75
2017-10-08T11:30:02.867Z,1016.73
2017-10-08T11:35:03.413Z,1016.81
2017-10-08T11:40:03.039Z,1016.92
2017-10-08T11:45:03.717Z,1016.95
2017-10-08T11:50:03.323Z,1017
2017-10-08T11:55:02.775Z,1016.98
2017-10-08T12:00:03.508Z,1016.96
2017-10-08T12:05:02.898Z,1016.93
2017-10-08T12:10:03.706Z,1017.01
2017-10-08T12:15:03.436Z,1017.07
2017-10-08T12:20:02.914Z,1017.09
2017-10-08T12:25:03.574Z,1017.14
2017-10-08T12:30:03.037Z,1017.11
2017-10-08T12:35:03.798Z,1017.14
2017-10-08T12:40:03.552Z,1017.16
2017-10-08T12:45:03.280Z,1017.12
2017-10-08T12:50:02.678Z,1017.2
2017-10-08T12:55:03.336Z,1017.16
2017-10-08T13:00:02.736Z,1017.09
2017-10-08T13:05:03.297Z,1017.07
2017-10-08T13:10:03.066Z,1017.04
2017-10-08T13:15:03.594Z,1017.19
2017-10-08T13:20:03.431Z,1017.13
2017-10-08T13:25:02.954Z,1017.14
2017-10-08T13:30:03.602Z,1017.19
2017-10-08T13:35:03.423Z,1017.2
2017-10-08T13:40:02.894Z,1017.23
2017-10-08T13:45:03.499Z,1017.3
2017-10-08T13:50:03.229Z,1017.3
2017-10-08T13:55:02.661Z,1017.17
2017-10-08T14:00:03.265Z,1017.19
2017-10-08T14:05:02.849Z,1017.17
2017-10-08T14:10:03.653Z,1017.18
2017-10-08T14:15:03.040Z,1017.17
2017-10-08T14:20:02.832Z,1017.19
2017-10-08T14:25:03.399Z,1017.29
2017-10-08T14:30:02.914Z,1017.3
2017-10-08T14:35:03.651Z,1017.33
2017-10-08T14:40:03.401Z,1017.36
2017-10-08T14:45:02.861Z,1017.3
2017-10-08T14:50:03.539Z,1017.33
2017-10-08T14:55:03.203Z,1017.32
2017-10-08T15:00:03.158Z,1017.46
2017-10-08T15:05:02.901Z,1017.48
2017-10-08T15:10:03.684Z,1017.48
2017-10-08T15:15:03.309Z,1017.53
2017-10-08T15:20:03.012Z,1017.55
2017-10-08T15:25:03.783Z,1017.53
2017-10-08T15:30:03.481Z,1017.56
2017-10-08T15:35:03.344Z,1017.56
2017-10-08T15:40:02.817Z,1017.6
2017-10-08T15:45:03.387Z,1017.62
2017-10-08T15:50:03.356Z,1017.68
2017-10-08T15:55:02.889Z,1017.81
2017-10-08T16:00:03.661Z,1017.78
2017-10-08T16:05:03.433Z,1017.83
2017-10-08T16:10:02.900Z,1017.91
2017-10-08T16:15:03.586Z,1017.96
2017-10-08T16:20:03.253Z,1018.08
2017-10-08T16:25:02.861Z,1018.11
2017-10-08T16:30:03.585Z,1018.18
2017-10-08T16:35:03.368Z,1018.28
2017-10-08T16:40:02.982Z,1018.19
2017-10-08T16:45:03.585Z,1018.3
2017-10-08T16:50:03.290Z,1018.37
2017-10-08T16:55:02.626Z,1018.34
2017-10-08T17:00:04.516Z,1018.39
2017-10-08T17:05:03.072Z,1018.44
2017-10-08T17:10:02.874Z,1018.47
2017-10-08T17:15:03.511Z,1018.5
2017-10-08T17:20:03.374Z,1018.63
2017-10-08T17:25:03.018Z,1018.69
2017-10-08T17:30:03.762Z,1018.8
2017-10-08T17:35:04.711Z,1018.89
2017-10-08T17:40:03.210Z,1018.91
2017-10-08T17:45:02.901Z,1019
2017-10-08T17:50:03.660Z,1019.05
2017-10-08T17:55:03.363Z,1019.1
2017-10-08T18:00:02.765Z,1019.14
2017-10-08T18:05:03.481Z,1019.15
2017-10-08T18:10:02.834Z,1019.17
2017-10-08T18:15:03.583Z,1019.29
2017-10-08T18:20:02.998Z,1019.28
2017-10-08T18:25:02.657Z,1019.25
2017-10-08T18:30:03.235Z,1019.33
2017-10-08T18:35:02.863Z,1019.36
2017-10-08T18:40:03.503Z,1019.38
2017-10-08T18:45:02.929Z,1019.4
2017-10-08T18:50:03.636Z,1019.47
2017-10-08T18:55:03.003Z,1019.48
2017-10-08T19:00:02.706Z,1019.62
2017-10-08T19:05:03.299Z,1019.64
2017-10-08T19:10:02.935Z,1019.71
2017-10-08T19:15:03.611Z,1019.67
2017-10-08T19:20:02.962Z,1019.69
2017-10-08T19:25:04.935Z,1019.7
2017-10-08T19:30:03.502Z,1019.79
2017-10-08T19:35:03.064Z,1019.77
2017-10-08T19:40:03.777Z,1019.8
2017-10-08T19:45:03.418Z,1019.8
2017-10-08T19:50:02.768Z,1019.84
2017-10-08T19:55:03.294Z,1019.85
2017-10-08T20:00:02.897Z,1019.86
2017-10-08T20:05:03.642Z,1019.88
2017-10-08T20:10:03.393Z,1019.85
2017-10-08T20:15:02.926Z,1019.84
2017-10-08T20:20:03.523Z,1019.88
2017-10-08T20:25:02.990Z,1019.9
2017-10-08T20:30:03.770Z,1019.88
2017-10-08T20:35:04.793Z,1019.9
2017-10-08T20:40:03.339Z,1020.01
2017-10-08T20:45:02.852Z,1019.97
2017-10-08T20:50:03.522Z,1019.97
2017-10-08T20:55:02.978Z,1020.06
2017-10-08T21:00:05.066Z,1020.12
2017-10-08T21:05:03.561Z,1020.12
2017-10-08T21:10:03.342Z,1020.13
2017-10-08T21:15:02.702Z,1020.13
2017-10-08T21:20:03.531Z,1020.13
2017-10-08T21:25:03.226Z,1020.17
2017-10-08T21:30:03.016Z,1020.17
2017-10-08T21:35:02.785Z,1020.11
2017-10-08T21:40:04.858Z,1020.15
2017-10-08T21:45:03.175Z,1020.16
2017-10-08T21:50:03.725Z,1020.17
2017-10-08T21:55:03.282Z,1020.17
2017-10-08T22:00:02.813Z,1020.15
2017-10-08T22:05:03.414Z,1020.18
2017-10-08T22:10:02.896Z,1020.18
2017-10-08T22:15:03.405Z,1020.19
2017-10-08T22:20:02.787Z,1020.12
2017-10-08T22:25:03.503Z,1020.09
2017-10-08T22:30:02.819Z,1020.08
2017-10-08T22:35:03.340Z,1020.09
2017-10-08T22:40:02.732Z,1020.12
2017-10-08T22:45:03.389Z,1020.09
2017-10-08T22:50:02.877Z,1020.07
2017-10-08T22:55:03.672Z,1020.09
2017-10-08T23:00:03.876Z,1020.08
2017-10-08T23:05:03.547Z,1020.08
2017-10-08T23:10:02.988Z,1020.06
2017-10-08T23:15:02.692Z,1020.06
2017-10-08T23:20:03.422Z,1020.07
2017-10-08T23:25:02.799Z,1020.08
2017-10-08T23:30:03.271Z,1020.16
2017-10-08T23:35:02.915Z,1020.11
2017-10-08T23:40:03.640Z,1020.11
2017-10-08T23:45:03.341Z,1020.1
2017-10-08T23:50:02.702Z,1020.07
2017-10-08T23:55:03.434Z,1020.12
